createdAt,value
2019-05-03T00:01:42.676Z,99.77
2019-05-03T00:04:17.171Z,100.00
2019-05-03T00:06:48.160Z,100.00
2019-05-03T00:09:19.586Z,100.00
2019-05-03T00:11:52.697Z,100.00
2019-05-03T00:14:23.934Z,100.00
2019-05-03T00:16:57.855Z,100.00
2019-05-03T00:19:29.042Z,100.00
2019-05-03T00:22:01.944Z,100.00
2019-05-03T00:24:33.158Z,100.00
2019-05-03T00:27:26.989Z,100.00
2019-05-03T00:30:09.123Z,100.00
2019-05-03T00:32:40.417Z,100.00
2019-05-03T00:35:38.425Z,100.00
2019-05-03T00:38:12.294Z,100.00
2019-05-03T00:40:43.532Z,100.00
2019-05-03T00:43:14.548Z,100.00
2019-05-03T00:45:44.594Z,100.00
2019-05-03T00:48:15.938Z,100.00
2019-05-03T00:50:46.904Z,100.00
2019-05-03T00:53:18.240Z,100.00
2019-05-03T00:55:49.252Z,100.00
2019-05-03T00:58:22.242Z,100.00
2019-05-03T01:00:53.236Z,100.00
2019-05-03T01:03:24.404Z,100.00
2019-05-03T01:05:55.459Z,100.00
2019-05-03T01:08:26.535Z,100.00
2019-05-03T01:10:57.610Z,100.00
2019-05-03T01:13:28.826Z,100.00
2019-05-03T01:16:02.746Z,100.00
2019-05-03T01:18:35.429Z,100.00
2019-05-03T01:21:06.470Z,100.00
2019-05-03T01:23:36.666Z,100.00
2019-05-03T01:26:08.085Z,100.00
2019-05-03T01:28:39.244Z,100.00
2019-05-03T01:31:11.960Z,100.00
2019-05-03T01:33:43.051Z,100.00
2019-05-03T01:36:14.215Z,100.00
2019-05-03T01:38:45.206Z,100.00
2019-05-03T01:41:16.583Z,100.00
2019-05-03T01:43:47.734Z,100.00
2019-05-03T01:46:18.912Z,100.00
2019-05-03T01:48:57.391Z,100.00
2019-05-03T01:51:33.023Z,100.00
2019-05-03T01:54:03.902Z,100.00
2019-05-03T01:56:34.162Z,100.00
2019-05-03T01:59:05.428Z,100.00
2019-05-03T02:01:42.152Z,100.00
2019-05-03T02:04:17.955Z,100.00
2019-05-03T02:06:48.976Z,100.00
2019-05-03T02:09:21.670Z,100.00
2019-05-03T02:11:52.817Z,100.00
2019-05-03T02:14:24.101Z,100.00
2019-05-03T02:16:55.355Z,100.00
2019-05-03T02:19:26.444Z,100.00
2019-05-03T02:21:57.610Z,100.00
2019-05-03T02:24:28.785Z,100.00
2019-05-03T02:26:59.741Z,100.00
2019-05-03T02:29:32.592Z,100.00
2019-05-03T02:32:04.954Z,100.00
2019-05-03T02:34:35.084Z,100.00
2019-05-03T02:37:06.310Z,100.00
2019-05-03T02:39:37.272Z,100.00
2019-05-03T02:42:11.709Z,100.00
2019-05-03T02:44:41.372Z,100.00
2019-05-03T02:47:15.884Z,100.00
2019-05-03T02:49:48.619Z,100.00
2019-05-03T02:52:36.743Z,100.00
2019-05-03T02:55:09.361Z,100.00
2019-05-03T02:57:40.698Z,100.00
2019-05-03T03:00:16.362Z,100.00
2019-05-03T03:02:46.629Z,100.00
2019-05-03T03:05:17.717Z,100.00
2019-05-03T03:07:51.883Z,100.00
2019-05-03T03:10:22.919Z,100.00
2019-05-03T03:12:56.182Z,100.00
2019-05-03T03:15:28.793Z,100.00
2019-05-03T03:18:01.215Z,100.00
2019-05-03T03:20:35.751Z,100.00
2019-05-03T03:23:09.719Z,100.00
2019-05-03T03:25:46.208Z,100.00
2019-05-03T03:28:20.696Z,100.00
2019-05-03T03:31:18.003Z,100.00
2019-05-03T03:33:48.870Z,100.00
2019-05-03T03:36:50.313Z,100.00
2019-05-03T03:38:55.386Z,100.00
2019-05-03T03:41:26.889Z,100.00
2019-05-03T03:43:58.887Z,100.00
2019-05-03T03:46:32.217Z,100.00
2019-05-03T03:49:07.073Z,100.00
2019-05-03T03:51:39.458Z,100.00
2019-05-03T03:54:15.506Z,100.00
2019-05-03T03:57:02.705Z,100.00
2019-05-03T03:59:26.558Z,100.00
2019-05-03T04:01:56.973Z,100.00
2019-05-03T04:04:28.875Z,100.00
2019-05-03T04:07:01.390Z,100.00
2019-05-03T04:09:36.062Z,100.00
2019-05-03T04:12:06.411Z,100.00
2019-05-03T04:14:45.359Z,100.00
2019-05-03T04:17:20.900Z,100.00
2019-05-03T04:19:57.052Z,100.00
2019-05-03T04:22:28.121Z,100.00
2019-05-03T04:24:59.653Z,100.00
2019-05-03T04:27:32.392Z,100.00
2019-05-03T04:30:06.366Z,100.00
2019-05-03T04:33:06.210Z,100.00
2019-05-03T04:35:46.312Z,100.00
2019-05-03T04:38:16.603Z,100.00
2019-05-03T04:40:47.795Z,100.00
2019-05-03T04:43:19.029Z,100.00
2019-05-03T04:46:06.600Z,100.00
2019-05-03T04:48:37.006Z,100.00
2019-05-03T04:51:08.335Z,100.00
2019-05-03T04:53:40.924Z,100.00
2019-05-03T04:56:11.038Z,100.00
2019-05-03T04:58:42.222Z,100.00
2019-05-03T05:01:15.832Z,100.00
2019-05-03T05:03:46.350Z,100.00
2019-05-03T05:06:17.620Z,100.00
2019-05-03T05:08:48.737Z,100.00
2019-05-03T05:11:19.702Z,100.00
2019-05-03T05:13:50.860Z,100.00
2019-05-03T05:16:21.943Z,100.00
2019-05-03T05:19:12.008Z,100.00
2019-05-03T05:21:52.079Z,100.00
2019-05-03T05:24:25.395Z,100.00
2019-05-03T05:27:14.622Z,100.00
2019-05-03T05:29:45.922Z,100.00
2019-05-03T05:32:17.292Z,100.00
2019-05-03T05:34:48.517Z,100.00
2019-05-03T05:37:19.442Z,100.00
2019-05-03T05:39:50.573Z,100.00
2019-05-03T05:42:21.610Z,100.00
2019-05-03T05:44:51.768Z,100.00
2019-05-03T05:47:25.426Z,100.00
2019-05-03T05:49:58.159Z,100.00
2019-05-03T05:52:29.352Z,100.00
2019-05-03T05:55:02.038Z,100.00
2019-05-03T05:57:37.455Z,100.00
2019-05-03T06:00:10.259Z,100.00
2019-05-03T06:02:41.549Z,100.00
2019-05-03T06:05:14.699Z,100.00
2019-05-03T06:07:56.014Z,100.00
2019-05-03T06:10:31.553Z,100.00
2019-05-03T06:13:16.376Z,100.00
2019-05-03T06:15:51.963Z,100.00
2019-05-03T06:18:25.177Z,100.00
2019-05-03T06:20:57.754Z,100.00
2019-05-03T06:23:34.738Z,100.00
2019-05-03T06:26:07.438Z,100.00
2019-05-03T06:28:37.618Z,100.00
2019-05-03T06:31:14.876Z,100.00
2019-05-03T06:33:46.075Z,100.00
2019-05-03T06:36:17.422Z,100.00
2019-05-03T06:38:48.334Z,100.00
2019-05-03T06:41:19.637Z,100.00
2019-05-03T06:43:50.647Z,100.00
2019-05-03T06:46:30.278Z,100.00
2019-05-03T06:48:56.263Z,100.00
2019-05-03T06:51:27.469Z,100.00
2019-05-03T06:53:58.577Z,100.00
2019-05-03T06:56:29.811Z,100.00
2019-05-03T06:59:01.018Z,100.00
2019-05-03T07:01:34.496Z,100.00
2019-05-03T07:04:15.119Z,100.00
2019-05-03T07:06:46.611Z,100.00
2019-05-03T07:09:22.446Z,100.00
2019-05-03T07:11:55.712Z,100.00
2019-05-03T07:14:26.886Z,100.00
2019-05-03T07:16:57.915Z,100.00
2019-05-03T07:19:28.975Z,100.00
2019-05-03T07:21:59.942Z,100.00
2019-05-03T07:24:31.307Z,100.00
2019-05-03T07:27:02.261Z,100.00
2019-05-03T07:29:33.505Z,100.00
2019-05-03T07:32:05.249Z,100.00
2019-05-03T07:34:36.599Z,100.00
2019-05-03T07:37:07.751Z,100.00
2019-05-03T07:39:39.013Z,100.00
2019-05-03T07:42:10.111Z,100.00
2019-05-03T07:44:40.359Z,100.00
2019-05-03T07:47:11.577Z,100.00
2019-05-03T07:49:44.573Z,100.00
2019-05-03T07:52:15.511Z,100.00
2019-05-03T07:54:46.538Z,97.07
2019-05-03T07:57:25.626Z,98.64
2019-05-03T07:59:56.847Z,98.67
2019-05-03T08:02:28.105Z,95.26
2019-05-03T08:04:59.291Z,91.68
2019-05-03T08:07:30.309Z,93.13
2019-05-03T08:10:01.428Z,94.03
2019-05-03T08:12:32.541Z,91.05
2019-05-03T08:15:05.365Z,90.96
2019-05-03T08:17:35.613Z,89.96
2019-05-03T08:20:07.729Z,90.57
2019-05-03T08:22:38.703Z,88.33
2019-05-03T08:25:10.093Z,86.74
2019-05-03T08:27:47.247Z,84.45
2019-05-03T08:30:20.096Z,84.90
2019-05-03T08:32:54.821Z,83.85
2019-05-03T08:35:35.436Z,82.92
2019-05-03T08:38:06.615Z,83.68
2019-05-03T08:40:39.382Z,82.65
2019-05-03T08:43:10.788Z,79.09
2019-05-03T08:45:41.952Z,81.06
2019-05-03T08:48:15.060Z,77.00
2019-05-03T08:50:45.811Z,80.02
2019-05-03T08:53:17.103Z,76.88
2019-05-03T08:55:48.447Z,76.18
2019-05-03T08:58:19.338Z,75.02
2019-05-03T09:00:49.577Z,77.17
2019-05-03T09:03:24.966Z,78.58
2019-05-03T09:05:56.585Z,76.03
2019-05-03T09:08:27.872Z,71.30
2019-05-03T09:11:00.401Z,68.50
2019-05-03T09:13:34.316Z,67.16
2019-05-03T09:16:05.561Z,66.25
2019-05-03T09:18:36.702Z,66.18
2019-05-03T09:21:07.981Z,66.29
2019-05-03T09:23:39.078Z,65.50
2019-05-03T09:26:10.143Z,65.89
2019-05-03T09:28:41.412Z,68.70
2019-05-03T09:31:12.475Z,68.55
2019-05-03T09:33:44.950Z,72.41
2019-05-03T09:36:15.562Z,71.14
2019-05-03T09:38:46.521Z,73.80
2019-05-03T09:41:17.800Z,74.28
2019-05-03T09:43:48.932Z,71.07
2019-05-03T09:46:19.996Z,67.41
2019-05-03T09:48:51.146Z,60.92
2019-05-03T09:51:22.359Z,58.08
2019-05-03T09:53:55.534Z,57.35
2019-05-03T09:56:54.993Z,60.19
2019-05-03T09:59:17.922Z,62.99
2019-05-03T10:01:49.279Z,59.92
2019-05-03T10:04:20.742Z,60.62
2019-05-03T10:06:52.072Z,56.46
2019-05-03T10:09:25.784Z,54.30
2019-05-03T10:11:55.399Z,51.99
2019-05-03T10:14:26.714Z,52.53
2019-05-03T10:17:02.029Z,56.43
2019-05-03T10:19:39.986Z,57.05
2019-05-03T10:22:07.176Z,57.73
2019-05-03T10:24:38.437Z,61.47
2019-05-03T10:27:09.500Z,60.11
2019-05-03T10:29:40.718Z,59.01
2019-05-03T10:32:16.156Z,57.81
2019-05-03T10:35:01.322Z,55.12
2019-05-03T10:37:35.900Z,54.37
2019-05-03T10:40:08.713Z,51.46
2019-05-03T10:42:39.830Z,48.53
2019-05-03T10:45:11.262Z,48.94
2019-05-03T10:47:42.300Z,50.05
2019-05-03T10:50:15.581Z,47.49
2019-05-03T10:52:51.057Z,49.92
2019-05-03T10:55:21.286Z,48.79
2019-05-03T10:57:57.233Z,47.04
2019-05-03T11:00:50.239Z,46.66
2019-05-03T11:03:02.725Z,50.43
2019-05-03T11:05:34.832Z,50.72
2019-05-03T11:08:06.029Z,50.28
2019-05-03T11:10:37.167Z,50.37
2019-05-03T11:13:08.376Z,50.82
2019-05-03T11:15:39.322Z,49.08
2019-05-03T11:18:10.734Z,48.66
2019-05-03T11:20:41.948Z,48.69
2019-05-03T11:23:14.661Z,49.30
2019-05-03T11:25:45.769Z,49.53
2019-05-03T11:28:21.607Z,46.99
2019-05-03T11:30:57.796Z,47.80
2019-05-03T11:33:31.966Z,46.90
2019-05-03T11:36:07.952Z,44.90
2019-05-03T11:38:40.543Z,47.93
2019-05-03T11:41:12.190Z,45.91
2019-05-03T11:43:44.367Z,47.45
2019-05-03T11:46:16.033Z,46.81
2019-05-03T11:48:47.093Z,46.73
2019-05-03T11:51:18.485Z,43.58
2019-05-03T11:53:49.451Z,46.55
2019-05-03T11:56:20.653Z,43.33
2019-05-03T11:58:51.639Z,44.82
2019-05-03T12:01:25.665Z,41.50
2019-05-03T12:03:57.045Z,41.03
2019-05-03T12:06:28.324Z,44.50
2019-05-03T12:08:59.322Z,45.81
2019-05-03T12:11:31.098Z,47.59
2019-05-03T12:14:12.309Z,48.13
2019-05-03T12:19:29.993Z,51.18
2019-05-03T12:21:57.051Z,50.17
2019-05-03T12:24:29.026Z,53.09
2019-05-03T12:27:00.609Z,53.28
2019-05-03T12:29:31.755Z,53.20
2019-05-03T12:32:02.681Z,53.62
2019-05-03T12:34:35.266Z,53.16
2019-05-03T12:37:06.409Z,52.28
2019-05-03T12:39:37.773Z,50.54
2019-05-03T12:42:09.481Z,47.73
2019-05-03T12:44:40.740Z,46.40
2019-05-03T12:47:14.578Z,47.93
2019-05-03T12:49:45.236Z,48.28
2019-05-03T12:52:17.526Z,49.61
2019-05-03T12:54:48.933Z,46.69
2019-05-03T12:57:20.167Z,45.09
2019-05-03T12:59:55.926Z,45.84
2019-05-03T13:02:37.738Z,47.56
2019-05-03T13:05:08.817Z,49.60
2019-05-03T13:07:45.496Z,50.96
2019-05-03T13:10:22.172Z,52.83
2019-05-03T13:12:53.136Z,54.27
2019-05-03T13:15:24.477Z,54.67
2019-05-03T13:17:55.468Z,54.55
2019-05-03T13:20:26.514Z,55.72
2019-05-03T13:22:57.608Z,55.73
2019-05-03T13:25:28.566Z,55.44
2019-05-03T13:27:59.785Z,55.92
2019-05-03T13:30:30.916Z,55.40
2019-05-03T13:33:01.058Z,55.54
2019-05-03T13:35:32.194Z,55.01
2019-05-03T13:38:03.154Z,55.31
2019-05-03T13:40:35.916Z,53.76
2019-05-03T13:43:07.103Z,54.77
2019-05-03T13:45:38.698Z,53.66
2019-05-03T13:48:09.925Z,53.76
2019-05-03T13:50:41.118Z,52.72
2019-05-03T13:53:12.114Z,51.37
2019-05-03T13:55:44.526Z,51.41
2019-05-03T13:58:16.533Z,52.25
2019-05-03T14:00:47.862Z,49.06
2019-05-03T14:03:18.950Z,50.72
2019-05-03T14:05:48.984Z,52.20
2019-05-03T14:08:20.444Z,54.00
2019-05-03T14:10:51.400Z,53.88
2019-05-03T14:13:22.616Z,54.61
2019-05-03T14:15:54.792Z,53.22
2019-05-03T14:18:26.153Z,54.57
2019-05-03T14:20:58.784Z,55.39
2019-05-03T14:23:29.953Z,55.88
2019-05-03T14:26:01.022Z,55.58
2019-05-03T14:28:32.238Z,55.37
2019-05-03T14:31:05.137Z,56.45
2019-05-03T14:33:37.248Z,55.73
2019-05-03T14:36:08.493Z,54.94
2019-05-03T14:38:38.929Z,56.65
2019-05-03T14:41:10.860Z,57.13
2019-05-03T14:44:04.876Z,58.56
2019-05-03T14:46:36.489Z,59.23
2019-05-03T14:49:07.562Z,60.02
2019-05-03T14:51:38.988Z,57.54
2019-05-03T14:54:10.414Z,57.91
2019-05-03T14:56:45.352Z,57.71
2019-05-03T14:59:34.558Z,56.74
2019-05-03T15:02:15.425Z,57.52
2019-05-03T15:04:46.212Z,57.66
2019-05-03T15:07:17.562Z,57.94
2019-05-03T15:09:48.478Z,57.87
2019-05-03T15:12:19.753Z,58.46
2019-05-03T15:14:50.735Z,57.75
2019-05-03T15:17:21.878Z,57.22
2019-05-03T15:19:54.723Z,57.17
2019-05-03T15:22:26.289Z,57.03
2019-05-03T15:24:57.373Z,56.22
2019-05-03T15:27:29.539Z,55.10
2019-05-03T15:30:01.344Z,55.93
2019-05-03T15:32:35.237Z,55.45
2019-05-03T15:35:08.603Z,55.57
2019-05-03T15:37:39.505Z,54.02
2019-05-03T15:40:11.234Z,55.68
2019-05-03T15:42:45.118Z,55.69
2019-05-03T15:45:35.089Z,57.22
2019-05-03T15:48:07.986Z,55.26
2019-05-03T15:50:39.219Z,55.71
2019-05-03T15:53:15.262Z,54.08
2019-05-03T15:55:46.590Z,52.27
2019-05-03T15:58:17.569Z,52.73
2019-05-03T16:00:49.755Z,50.89
2019-05-03T16:03:21.383Z,52.85
2019-05-03T16:05:55.638Z,50.62
2019-05-03T16:08:27.385Z,49.27
2019-05-03T16:10:58.737Z,50.27
2019-05-03T16:13:32.104Z,51.57
2019-05-03T16:16:04.388Z,50.64
2019-05-03T16:18:37.455Z,50.92
2019-05-03T16:21:08.659Z,51.55
2019-05-03T16:23:40.165Z,52.01
2019-05-03T16:26:11.118Z,51.59
2019-05-03T16:28:46.340Z,52.84
2019-05-03T16:31:19.359Z,52.66
2019-05-03T16:33:50.821Z,53.41
2019-05-03T16:36:22.561Z,54.32
2019-05-03T16:38:55.376Z,54.00
2019-05-03T16:41:26.898Z,54.40
2019-05-03T16:44:03.446Z,53.30
2019-05-03T16:46:35.143Z,53.86
2019-05-03T16:49:06.534Z,55.14
2019-05-03T16:51:38.936Z,54.98
2019-05-03T16:54:10.749Z,54.92
2019-05-03T16:56:42.146Z,55.76
2019-05-03T16:59:14.781Z,55.17
2019-05-03T17:01:46.856Z,55.34
2019-05-03T17:04:35.757Z,55.33
2019-05-03T17:07:16.252Z,57.43
2019-05-03T17:09:48.786Z,56.35
2019-05-03T17:12:34.834Z,56.81
2019-05-03T17:15:10.275Z,56.41
2019-05-03T17:17:45.108Z,57.06
2019-05-03T17:20:19.184Z,55.56
2019-05-03T17:22:50.528Z,55.97
2019-05-03T17:25:22.013Z,55.77
2019-05-03T17:27:57.367Z,55.77
2019-05-03T17:30:34.037Z,55.96
2019-05-03T17:33:04.503Z,55.73
2019-05-03T17:35:36.557Z,57.20
2019-05-03T17:38:07.193Z,57.58
2019-05-03T17:40:44.254Z,58.87
2019-05-03T17:43:17.460Z,58.14
2019-05-03T17:45:56.927Z,59.36
2019-05-03T17:48:28.300Z,59.25
2019-05-03T17:50:59.828Z,58.13
2019-05-03T17:53:37.478Z,58.36
2019-05-03T17:56:11.241Z,58.22
2019-05-03T17:58:55.190Z,57.90
2019-05-03T18:01:30.907Z,58.56
2019-05-03T18:04:24.827Z,60.82
2019-05-03T18:07:01.341Z,63.06
2019-05-03T18:09:35.026Z,63.94
2019-05-03T18:12:07.572Z,65.72
2019-05-03T18:14:39.072Z,65.50
2019-05-03T18:17:14.818Z,62.13
2019-05-03T18:19:47.852Z,62.19
2019-05-03T18:22:20.479Z,63.54
2019-05-03T18:24:51.700Z,63.23
2019-05-03T18:27:25.085Z,64.88
2019-05-03T18:29:59.586Z,66.14
2019-05-03T18:32:30.092Z,67.58
2019-05-03T18:35:06.195Z,66.87
2019-05-03T18:37:42.207Z,67.11
2019-05-03T18:40:19.210Z,67.20
2019-05-03T18:43:07.156Z,68.03
2019-05-03T18:46:04.969Z,68.08
2019-05-03T18:48:44.576Z,69.36
2019-05-03T18:51:26.285Z,69.61
2019-05-03T18:54:08.109Z,70.91
2019-05-03T18:56:39.925Z,70.18
2019-05-03T19:02:45.061Z,71.67
2019-05-03T19:05:24.350Z,72.64
2019-05-03T19:08:06.538Z,72.95
2019-05-03T19:10:44.610Z,74.28
2019-05-03T19:13:17.401Z,74.87
2019-05-03T19:15:48.864Z,74.91
2019-05-03T19:18:21.872Z,75.41
2019-05-03T19:20:54.980Z,75.95
2019-05-03T19:23:25.924Z,76.56
2019-05-03T19:25:56.899Z,77.25
2019-05-03T19:28:28.161Z,78.20
2019-05-03T19:30:59.255Z,78.58
2019-05-03T19:33:30.503Z,78.11
2019-05-03T19:36:01.512Z,78.10
2019-05-03T19:38:32.738Z,77.69
2019-05-03T19:41:03.883Z,77.04
2019-05-03T19:43:35.570Z,77.31
2019-05-03T19:46:07.406Z,77.00
2019-05-03T19:48:39.083Z,77.25
2019-05-03T19:51:10.314Z,77.82
2019-05-03T19:53:45.856Z,79.15
2019-05-03T19:56:17.497Z,80.52
2019-05-03T19:58:48.843Z,79.43
2019-05-03T20:01:28.072Z,78.82
2019-05-03T20:04:00.765Z,78.64
2019-05-03T20:06:36.325Z,78.18
2019-05-03T20:09:12.747Z,77.41
2019-05-03T20:11:45.961Z,77.27
2019-05-03T20:14:16.827Z,77.20
2019-05-03T20:16:48.065Z,77.42
2019-05-03T20:19:25.713Z,77.82
2019-05-03T20:22:05.180Z,78.25
2019-05-03T20:24:40.461Z,78.09
2019-05-03T20:27:19.619Z,78.78
2019-05-03T20:30:02.187Z,78.80
2019-05-03T20:32:39.999Z,79.17
2019-05-03T20:35:18.454Z,78.76
2019-05-03T20:37:44.862Z,78.49
2019-05-03T20:40:21.908Z,78.95
2019-05-03T20:43:05.023Z,79.09
2019-05-03T20:45:38.557Z,79.65
2019-05-03T20:48:19.605Z,79.32
2019-05-03T20:50:55.277Z,79.23
2019-05-03T20:53:35.973Z,79.11
2019-05-03T20:56:12.414Z,79.82
2019-05-03T20:58:44.686Z,79.86
2019-05-03T21:01:16.025Z,80.55
2019-05-03T21:03:47.044Z,81.06
2019-05-03T21:06:18.294Z,81.58
2019-05-03T21:08:53.140Z,81.77
2019-05-03T21:11:22.401Z,81.69
2019-05-03T21:13:53.271Z,81.44
2019-05-03T21:16:34.431Z,81.61
2019-05-03T21:19:09.474Z,81.50
2019-05-03T21:21:48.147Z,81.91
2019-05-03T21:24:20.758Z,81.54
2019-05-03T21:26:50.781Z,81.42
2019-05-03T21:29:22.327Z,82.00
2019-05-03T21:31:55.132Z,82.66
2019-05-03T21:34:26.796Z,83.30
2019-05-03T21:36:58.144Z,83.70
2019-05-03T21:39:29.288Z,84.01
2019-05-03T21:42:00.426Z,84.38
2019-05-03T21:44:40.706Z,83.89
2019-05-03T21:47:15.180Z,83.77
2019-05-03T21:49:48.235Z,84.38
2019-05-03T21:52:19.152Z,84.83
2019-05-03T21:54:50.532Z,85.50
2019-05-03T21:57:21.626Z,86.15
2019-05-03T21:59:52.677Z,86.93
2019-05-03T22:02:24.670Z,87.45
2019-05-03T22:04:54.931Z,87.97
2019-05-03T22:07:26.828Z,87.80
2019-05-03T22:09:58.020Z,88.20
2019-05-03T22:12:29.535Z,88.86
2019-05-03T22:15:10.934Z,89.35
2019-05-03T22:17:52.971Z,89.58
2019-05-03T22:20:28.432Z,89.88
2019-05-03T22:23:01.406Z,89.91
2019-05-03T22:25:34.894Z,90.20
2019-05-03T22:28:07.167Z,89.75
2019-05-03T22:30:38.330Z,89.00
2019-05-03T22:33:09.571Z,88.42
2019-05-03T22:35:40.569Z,87.96
2019-05-03T22:38:11.827Z,87.88
2019-05-03T22:40:44.278Z,87.69
2019-05-03T22:43:15.792Z,87.78
2019-05-03T22:45:46.818Z,87.56
2019-05-03T22:48:16.982Z,87.25
2019-05-03T22:50:48.138Z,87.07
2019-05-03T22:53:19.016Z,86.84
2019-05-03T22:55:50.085Z,86.68
2019-05-03T22:58:21.052Z,86.81
2019-05-03T23:00:52.145Z,87.05
2019-05-03T23:03:24.878Z,86.87
2019-05-03T23:05:58.573Z,87.06
2019-05-03T23:08:29.478Z,87.46
2019-05-03T23:11:00.652Z,87.43
2019-05-03T23:13:31.645Z,87.65
2019-05-03T23:16:05.046Z,87.48
2019-05-03T23:18:35.665Z,87.73
2019-05-03T23:21:07.644Z,87.69
2019-05-03T23:23:48.820Z,88.01
2019-05-03T23:26:19.137Z,88.20
2019-05-03T23:28:50.657Z,88.76
2019-05-03T23:31:21.653Z,88.78
2019-05-03T23:33:54.475Z,89.29
2019-05-03T23:36:33.212Z,89.48
2019-05-03T23:38:58.415Z,89.29
2019-05-03T23:41:29.361Z,89.52
2019-05-03T23:44:00.487Z,89.70
2019-05-03T23:46:34.803Z,89.74
2019-05-03T23:49:06.081Z,90.36
2019-05-03T23:51:44.525Z,90.43
2019-05-03T23:54:15.743Z,90.37
2019-05-03T23:56:46.823Z,90.51
2019-05-03T23:59:17.080Z,90.82
